sensor_id;sensor_type;location;lat;lon;timestamp;temperature;humidity
12015;DHT22;6066;48.138;16.402;2022-07-06T00:02:16;18.30;99.90
12015;DHT22;6066;48.138;16.402;2022-07-06T00:04:44;18.40;99.90
12015;DHT22;6066;48.138;16.402;2022-07-06T00:07:13;18.40;99.90
12015;DHT22;6066;48.138;16.402;2022-07-06T00:09:39;18.40;99.90
12015;DHT22;6066;48.138;16.402;2022-07-06T00:12:06;18.40;99.90
12015;DHT22;6066;48.138;16.402;2022-07-06T00:14:35;18.40;99.90
12015;DHT22;6066;48.138;16.402;2022-07-06T00:17:01;18.40;99.90
12015;DHT22;6066;48.138;16.402;2022-07-06T00:19:28;18.40;99.90
12015;DHT22;6066;48.138;16.402;2022-07-06T00:21:55;18.40;99.90
12015;DHT22;6066;48.138;16.402;2022-07-06T00:24:22;18.30;99.90
12015;DHT22;6066;48.138;16.402;2022-07-06T00:26:49;18.30;99.90
12015;DHT22;6066;48.138;16.402;2022-07-06T00:29:15;18.20;99.90
12015;DHT22;6066;48.138;16.402;2022-07-06T00:31:43;18.10;99.90
12015;DHT22;6066;48.138;16.402;2022-07-06T00:34:10;18.00;99.90
12015;DHT22;6066;48.138;16.402;2022-07-06T00:36:37;18.00;99.90
12015;DHT22;6066;48.138;16.402;2022-07-06T00:39:03;17.90;99.90
12015;DHT22;6066;48.138;16.402;2022-07-06T00:41:30;17.80;99.90
12015;DHT22;6066;48.138;16.402;2022-07-06T00:43:57;17.80;99.90
12015;DHT22;6066;48.138;16.402;2022-07-06T00:46:25;17.80;99.90
12015;DHT22;6066;48.138;16.402;2022-07-06T00:48:54;17.90;99.90
12015;DHT22;6066;48.138;16.402;2022-07-06T00:51:22;18.00;99.90
12015;DHT22;6066;48.138;16.402;2022-07-06T00:53:51;18.00;99.90
12015;DHT22;6066;48.138;16.402;2022-07-06T00:56:18;18.10;99.90
12015;DHT22;6066;48.138;16.402;2022-07-06T00:58:45;18.20;99.90
12015;DHT22;6066;48.138;16.402;2022-07-06T01:01:11;18.30;99.90
12015;DHT22;6066;48.138;16.402;2022-07-06T01:03:38;18.50;99.90
12015;DHT22;6066;48.138;16.402;2022-07-06T01:06:06;18.60;99.90
12015;DHT22;6066;48.138;16.402;2022-07-06T01:08:33;18.70;99.90
12015;DHT22;6066;48.138;16.402;2022-07-06T01:11:00;18.70;99.90
12015;DHT22;6066;48.138;16.402;2022-07-06T01:13:27;18.70;99.90
12015;DHT22;6066;48.138;16.402;2022-07-06T01:15:57;18.70;99.90
12015;DHT22;6066;48.138;16.402;2022-07-06T01:18:24;18.80;99.90
12015;DHT22;6066;48.138;16.402;2022-07-06T01:21:03;18.80;99.90
12015;DHT22;6066;48.138;16.402;2022-07-06T01:23:30;18.90;99.90
12015;DHT22;6066;48.138;16.402;2022-07-06T01:25:57;18.80;99.90
12015;DHT22;6066;48.138;16.402;2022-07-06T01:28:23;18.90;99.90
12015;DHT22;6066;48.138;16.402;2022-07-06T01:30:50;18.90;99.90
12015;DHT22;6066;48.138;16.402;2022-07-06T01:33:17;18.90;99.90
12015;DHT22;6066;48.138;16.402;2022-07-06T01:35:43;18.80;99.90
12015;DHT22;6066;48.138;16.402;2022-07-06T01:38:12;18.90;99.90
12015;DHT22;6066;48.138;16.402;2022-07-06T01:40:38;18.90;99.90
12015;DHT22;6066;48.138;16.402;2022-07-06T01:43:05;18.90;99.90
12015;DHT22;6066;48.138;16.402;2022-07-06T01:45:32;18.80;99.90
12015;DHT22;6066;48.138;16.402;2022-07-06T01:47:58;18.90;99.90
12015;DHT22;6066;48.138;16.402;2022-07-06T01:50:25;18.90;99.90
12015;DHT22;6066;48.138;16.402;2022-07-06T01:52:52;18.90;99.90
12015;DHT22;6066;48.138;16.402;2022-07-06T01:55:20;18.80;99.90
12015;DHT22;6066;48.138;16.402;2022-07-06T01:57:47;18.90;99.90
12015;DHT22;6066;48.138;16.402;2022-07-06T02:00:14;18.80;99.90
12015;DHT22;6066;48.138;16.402;2022-07-06T02:02:40;18.80;99.90
12015;DHT22;6066;48.138;16.402;2022-07-06T02:05:07;18.90;99.90
12015;DHT22;6066;48.138;16.402;2022-07-06T02:07:34;18.80;99.90
12015;DHT22;6066;48.138;16.402;2022-07-06T02:10:01;18.80;99.90
12015;DHT22;6066;48.138;16.402;2022-07-06T02:12:29;18.80;99.90
12015;DHT22;6066;48.138;16.402;2022-07-06T02:14:55;18.80;99.90
12015;DHT22;6066;48.138;16.402;2022-07-06T02:17:22;18.80;99.90
12015;DHT22;6066;48.138;16.402;2022-07-06T02:19:49;18.80;99.90
12015;DHT22;6066;48.138;16.402;2022-07-06T02:22:15;18.80;99.90
12015;DHT22;6066;48.138;16.402;2022-07-06T02:24:42;18.80;99.90
12015;DHT22;6066;48.138;16.402;2022-07-06T02:27:09;18.80;99.90
12015;DHT22;6066;48.138;16.402;2022-07-06T02:29:37;18.80;99.90
12015;DHT22;6066;48.138;16.402;2022-07-06T02:32:04;18.80;99.90
12015;DHT22;6066;48.138;16.402;2022-07-06T02:34:30;18.90;99.90
12015;DHT22;6066;48.138;16.402;2022-07-06T02:36:57;18.90;99.90
12015;DHT22;6066;48.138;16.402;2022-07-06T02:39:25;18.80;99.90
12015;DHT22;6066;48.138;16.402;2022-07-06T02:41:52;18.90;99.90
12015;DHT22;6066;48.138;16.402;2022-07-06T02:44:19;18.90;99.90
12015;DHT22;6066;48.138;16.402;2022-07-06T02:46:47;18.80;99.90
12015;DHT22;6066;48.138;16.402;2022-07-06T02:49:14;18.80;99.90
12015;DHT22;6066;48.138;16.402;2022-07-06T02:51:40;18.80;99.90
12015;DHT22;6066;48.138;16.402;2022-07-06T02:54:07;18.80;99.90
12015;DHT22;6066;48.138;16.402;2022-07-06T02:56:34;18.80;99.90
12015;DHT22;6066;48.138;16.402;2022-07-06T02:59:00;18.70;99.90
12015;DHT22;6066;48.138;16.402;2022-07-06T03:01:27;18.70;99.90
12015;DHT22;6066;48.138;16.402;2022-07-06T03:03:55;18.70;99.90
12015;DHT22;6066;48.138;16.402;2022-07-06T03:06:22;18.60;99.90
12015;DHT22;6066;48.138;16.402;2022-07-06T03:08:49;18.60;99.90
12015;DHT22;6066;48.138;16.402;2022-07-06T03:11:15;18.60;99.90
12015;DHT22;6066;48.138;16.402;2022-07-06T03:13:42;18.50;99.90
12015;DHT22;6066;48.138;16.402;2022-07-06T03:16:09;18.50;99.90
12015;DHT22;6066;48.138;16.402;2022-07-06T03:18:35;18.50;99.90
12015;DHT22;6066;48.138;16.402;2022-07-06T03:21:03;18.40;99.90
12015;DHT22;6066;48.138;16.402;2022-07-06T03:23:30;18.40;99.90
12015;DHT22;6066;48.138;16.402;2022-07-06T03:25:57;18.40;99.90
12015;DHT22;6066;48.138;16.402;2022-07-06T03:28:23;18.30;99.90
12015;DHT22;6066;48.138;16.402;2022-07-06T03:30:50;18.30;99.90
12015;DHT22;6066;48.138;16.402;2022-07-06T03:33:17;18.30;99.90
12015;DHT22;6066;48.138;16.402;2022-07-06T03:35:43;18.30;99.90
12015;DHT22;6066;48.138;16.402;2022-07-06T03:38:12;18.20;99.90
12015;DHT22;6066;48.138;16.402;2022-07-06T03:40:38;18.20;99.90
12015;DHT22;6066;48.138;16.402;2022-07-06T03:43:05;18.20;99.90
12015;DHT22;6066;48.138;16.402;2022-07-06T03:45:31;18.10;99.90
12015;DHT22;6066;48.138;16.402;2022-07-06T03:47:58;18.10;99.90
12015;DHT22;6066;48.138;16.402;2022-07-06T03:50:25;18.10;99.90
12015;DHT22;6066;48.138;16.402;2022-07-06T03:52:51;18.20;99.90
12015;DHT22;6066;48.138;16.402;2022-07-06T03:55:19;18.20;99.90
12015;DHT22;6066;48.138;16.402;2022-07-06T03:57:46;18.20;99.90
12015;DHT22;6066;48.138;16.402;2022-07-06T04:00:13;18.20;99.90
12015;DHT22;6066;48.138;16.402;2022-07-06T04:02:40;18.30;99.90
12015;DHT22;6066;48.138;16.402;2022-07-06T04:05:07;18.30;99.90
12015;DHT22;6066;48.138;16.402;2022-07-06T04:07:34;18.30;99.90
12015;DHT22;6066;48.138;16.402;2022-07-06T04:10:01;18.30;99.90
12015;DHT22;6066;48.138;16.402;2022-07-06T04:12:29;18.30;99.90
12015;DHT22;6066;48.138;16.402;2022-07-06T04:14:56;18.40;99.90
12015;DHT22;6066;48.138;16.402;2022-07-06T04:17:22;18.40;99.90
12015;DHT22;6066;48.138;16.402;2022-07-06T04:20:07;18.40;99.90
12015;DHT22;6066;48.138;16.402;2022-07-06T04:22:36;18.50;99.90
12015;DHT22;6066;48.138;16.402;2022-07-06T04:25:03;18.50;99.90
12015;DHT22;6066;48.138;16.402;2022-07-06T04:27:31;18.60;99.90
12015;DHT22;6066;48.138;16.402;2022-07-06T04:29:58;18.70;99.90
12015;DHT22;6066;48.138;16.402;2022-07-06T04:32:25;18.70;99.90
12015;DHT22;6066;48.138;16.402;2022-07-06T04:34:52;18.80;99.90
12015;DHT22;6066;48.138;16.402;2022-07-06T04:37:18;18.90;99.90
12015;DHT22;6066;48.138;16.402;2022-07-06T04:39:45;18.90;99.90
12015;DHT22;6066;48.138;16.402;2022-07-06T04:42:12;18.90;99.90
12015;DHT22;6066;48.138;16.402;2022-07-06T04:44:40;19.00;99.90
12015;DHT22;6066;48.138;16.402;2022-07-06T04:47:07;19.00;99.90
12015;DHT22;6066;48.138;16.402;2022-07-06T04:49:33;19.10;99.90
12015;DHT22;6066;48.138;16.402;2022-07-06T04:52:00;19.10;99.90
12015;DHT22;6066;48.138;16.402;2022-07-06T04:54:27;19.20;99.90
12015;DHT22;6066;48.138;16.402;2022-07-06T04:56:53;19.30;99.90
12015;DHT22;6066;48.138;16.402;2022-07-06T04:59:20;19.30;99.90
12015;DHT22;6066;48.138;16.402;2022-07-06T05:01:48;19.30;99.90
12015;DHT22;6066;48.138;16.402;2022-07-06T05:04:15;19.40;99.90
12015;DHT22;6066;48.138;16.402;2022-07-06T05:06:43;19.40;99.90
12015;DHT22;6066;48.138;16.402;2022-07-06T05:09:11;19.50;99.90
12015;DHT22;6066;48.138;16.402;2022-07-06T05:11:37;19.50;99.90
12015;DHT22;6066;48.138;16.402;2022-07-06T05:14:04;19.60;99.90
12015;DHT22;6066;48.138;16.402;2022-07-06T05:16:31;19.70;99.90
12015;DHT22;6066;48.138;16.402;2022-07-06T05:18:59;19.70;99.90
12015;DHT22;6066;48.138;16.402;2022-07-06T05:21:26;19.80;99.90
12015;DHT22;6066;48.138;16.402;2022-07-06T05:23:52;19.80;99.90
12015;DHT22;6066;48.138;16.402;2022-07-06T05:26:19;19.80;99.90
12015;DHT22;6066;48.138;16.402;2022-07-06T05:28:46;19.80;99.90
12015;DHT22;6066;48.138;16.402;2022-07-06T05:31:13;19.90;99.90
12015;DHT22;6066;48.138;16.402;2022-07-06T05:33:39;19.90;99.90
12015;DHT22;6066;48.138;16.402;2022-07-06T05:36:08;19.90;99.90
12015;DHT22;6066;48.138;16.402;2022-07-06T05:38:34;20.00;99.90
12015;DHT22;6066;48.138;16.402;2022-07-06T05:41:01;20.10;99.90
12015;DHT22;6066;48.138;16.402;2022-07-06T05:43:28;20.10;99.90
12015;DHT22;6066;48.138;16.402;2022-07-06T05:45:55;20.20;99.90
12015;DHT22;6066;48.138;16.402;2022-07-06T05:48:22;20.30;99.90
12015;DHT22;6066;48.138;16.402;2022-07-06T05:51:07;20.40;99.90
12015;DHT22;6066;48.138;16.402;2022-07-06T05:53:34;20.60;99.90
12015;DHT22;6066;48.138;16.402;2022-07-06T05:56:01;20.70;99.90
12015;DHT22;6066;48.138;16.402;2022-07-06T05:58:27;20.70;99.90
12015;DHT22;6066;48.138;16.402;2022-07-06T06:00:54;20.70;99.90
12015;DHT22;6066;48.138;16.402;2022-07-06T06:03:21;20.80;99.90
12015;DHT22;6066;48.138;16.402;2022-07-06T06:05:47;20.90;99.90
12015;DHT22;6066;48.138;16.402;2022-07-06T06:08:15;20.90;99.90
12015;DHT22;6066;48.138;16.402;2022-07-06T06:10:42;21.00;99.90
12015;DHT22;6066;48.138;16.402;2022-07-06T06:13:09;20.90;99.90
12015;DHT22;6066;48.138;16.402;2022-07-06T06:15:35;20.90;99.90
12015;DHT22;6066;48.138;16.402;2022-07-06T06:18:02;20.90;99.90
12015;DHT22;6066;48.138;16.402;2022-07-06T06:20:30;20.90;99.90
12015;DHT22;6066;48.138;16.402;2022-07-06T06:22:57;20.90;99.90
12015;DHT22;6066;48.138;16.402;2022-07-06T06:25:29;20.90;99.90
12015;DHT22;6066;48.138;16.402;2022-07-06T06:27:56;21.00;99.90
12015;DHT22;6066;48.138;16.402;2022-07-06T06:30:23;21.10;99.90
12015;DHT22;6066;48.138;16.402;2022-07-06T06:32:50;21.20;99.90
12015;DHT22;6066;48.138;16.402;2022-07-06T06:35:17;21.50;99.90
12015;DHT22;6066;48.138;16.402;2022-07-06T06:37:43;21.60;99.90
12015;DHT22;6066;48.138;16.402;2022-07-06T06:40:10;21.60;99.90
12015;DHT22;6066;48.138;16.402;2022-07-06T06:42:39;21.70;99.90
12015;DHT22;6066;48.138;16.402;2022-07-06T06:45:06;21.60;99.90
12015;DHT22;6066;48.138;16.402;2022-07-06T06:47:32;21.60;99.90
12015;DHT22;6066;48.138;16.402;2022-07-06T06:49:59;21.60;99.90
12015;DHT22;6066;48.138;16.402;2022-07-06T06:52:26;21.50;99.90
12015;DHT22;6066;48.138;16.402;2022-07-06T06:54:53;21.50;99.90
12015;DHT22;6066;48.138;16.402;2022-07-06T06:57:19;21.60;99.90
12015;DHT22;6066;48.138;16.402;2022-07-06T06:59:47;21.80;99.90
12015;DHT22;6066;48.138;16.402;2022-07-06T07:02:14;21.90;99.90
12015;DHT22;6066;48.138;16.402;2022-07-06T07:04:41;22.10;99.90
12015;DHT22;6066;48.138;16.402;2022-07-06T07:07:07;22.10;99.90
12015;DHT22;6066;48.138;16.402;2022-07-06T07:09:34;22.20;99.90
12015;DHT22;6066;48.138;16.402;2022-07-06T07:12:01;22.30;99.90
12015;DHT22;6066;48.138;16.402;2022-07-06T07:14:27;22.30;99.90
12015;DHT22;6066;48.138;16.402;2022-07-06T07:16:55;22.40;99.90
12015;DHT22;6066;48.138;16.402;2022-07-06T07:19:22;22.40;99.90
12015;DHT22;6066;48.138;16.402;2022-07-06T07:21:49;22.40;99.90
12015;DHT22;6066;48.138;16.402;2022-07-06T07:24:15;22.50;99.90
12015;DHT22;6066;48.138;16.402;2022-07-06T07:26:42;22.60;99.90
12015;DHT22;6066;48.138;16.402;2022-07-06T07:29:09;22.70;99.90
12015;DHT22;6066;48.138;16.402;2022-07-06T07:31:35;22.70;99.90
12015;DHT22;6066;48.138;16.402;2022-07-06T07:34:03;22.80;99.90
12015;DHT22;6066;48.138;16.402;2022-07-06T07:36:30;22.80;99.90
12015;DHT22;6066;48.138;16.402;2022-07-06T07:38:57;22.90;99.90
12015;DHT22;6066;48.138;16.402;2022-07-06T07:41:23;23.10;99.90
12015;DHT22;6066;48.138;16.402;2022-07-06T07:43:50;23.10;99.90
12015;DHT22;6066;48.138;16.402;2022-07-06T07:46:17;23.30;99.90
12015;DHT22;6066;48.138;16.402;2022-07-06T07:48:43;23.50;99.90
12015;DHT22;6066;48.138;16.402;2022-07-06T07:51:11;23.70;99.90
12015;DHT22;6066;48.138;16.402;2022-07-06T07:53:38;23.90;99.90
12015;DHT22;6066;48.138;16.402;2022-07-06T07:56:05;24.20;99.90
12015;DHT22;6066;48.138;16.402;2022-07-06T07:58:31;24.20;99.90
12015;DHT22;6066;48.138;16.402;2022-07-06T08:00:58;24.40;99.90
12015;DHT22;6066;48.138;16.402;2022-07-06T08:03:26;24.60;99.90
12015;DHT22;6066;48.138;16.402;2022-07-06T08:05:52;24.70;99.90
12015;DHT22;6066;48.138;16.402;2022-07-06T08:08:21;24.70;99.90
12015;DHT22;6066;48.138;16.402;2022-07-06T08:10:47;24.80;99.90
12015;DHT22;6066;48.138;16.402;2022-07-06T08:13:14;24.70;99.90
12015;DHT22;6066;48.138;16.402;2022-07-06T08:15:41;24.70;99.90
12015;DHT22;6066;48.138;16.402;2022-07-06T08:18:08;24.60;99.90
12015;DHT22;6066;48.138;16.402;2022-07-06T08:20:35;24.40;99.90
12015;DHT22;6066;48.138;16.402;2022-07-06T08:23:01;24.30;99.90
12015;DHT22;6066;48.138;16.402;2022-07-06T08:25:30;24.30;99.90
12015;DHT22;6066;48.138;16.402;2022-07-06T08:27:56;24.20;99.90
12015;DHT22;6066;48.138;16.402;2022-07-06T08:30:23;24.20;99.90
12015;DHT22;6066;48.138;16.402;2022-07-06T08:32:50;24.30;99.90
12015;DHT22;6066;48.138;16.402;2022-07-06T08:35:16;24.30;99.90
12015;DHT22;6066;48.138;16.402;2022-07-06T08:37:43;24.40;99.90
12015;DHT22;6066;48.138;16.402;2022-07-06T08:40:11;24.50;99.90
12015;DHT22;6066;48.138;16.402;2022-07-06T08:42:39;24.70;99.90
12015;DHT22;6066;48.138;16.402;2022-07-06T08:45:06;24.70;99.90
12015;DHT22;6066;48.138;16.402;2022-07-06T08:47:33;24.80;99.90
12015;DHT22;6066;48.138;16.402;2022-07-06T08:50:02;25.10;99.90
12015;DHT22;6066;48.138;16.402;2022-07-06T08:52:29;25.00;99.90
12015;DHT22;6066;48.138;16.402;2022-07-06T08:54:56;25.10;99.90
12015;DHT22;6066;48.138;16.402;2022-07-06T08:57:23;25.20;99.90
12015;DHT22;6066;48.138;16.402;2022-07-06T08:59:52;25.30;99.90
12015;DHT22;6066;48.138;16.402;2022-07-06T09:02:18;25.50;99.90
12015;DHT22;6066;48.138;16.402;2022-07-06T09:04:45;25.60;99.90
12015;DHT22;6066;48.138;16.402;2022-07-06T09:07:13;25.80;99.90
12015;DHT22;6066;48.138;16.402;2022-07-06T09:09:40;25.80;99.90
12015;DHT22;6066;48.138;16.402;2022-07-06T09:12:09;26.00;99.90
12015;DHT22;6066;48.138;16.402;2022-07-06T09:14:37;26.20;99.90
12015;DHT22;6066;48.138;16.402;2022-07-06T09:17:05;26.30;99.90
12015;DHT22;6066;48.138;16.402;2022-07-06T09:19:34;26.50;99.90
12015;DHT22;6066;48.138;16.402;2022-07-06T09:22:01;26.60;99.90
12015;DHT22;6066;48.138;16.402;2022-07-06T09:24:27;26.90;99.90
12015;DHT22;6066;48.138;16.402;2022-07-06T09:26:55;27.00;99.90
12015;DHT22;6066;48.138;16.402;2022-07-06T09:29:29;26.90;99.90
12015;DHT22;6066;48.138;16.402;2022-07-06T09:31:56;27.10;99.90
12015;DHT22;6066;48.138;16.402;2022-07-06T09:34:25;27.20;99.90
12015;DHT22;6066;48.138;16.402;2022-07-06T09:36:52;27.10;99.90
12015;DHT22;6066;48.138;16.402;2022-07-06T09:39:19;27.20;99.90
12015;DHT22;6066;48.138;16.402;2022-07-06T09:41:46;27.20;99.90
12015;DHT22;6066;48.138;16.402;2022-07-06T09:44:14;27.40;99.90
12015;DHT22;6066;48.138;16.402;2022-07-06T09:46:46;27.40;99.90
12015;DHT22;6066;48.138;16.402;2022-07-06T09:49:13;27.40;99.90
12015;DHT22;6066;48.138;16.402;2022-07-06T09:51:44;27.40;99.90
12015;DHT22;6066;48.138;16.402;2022-07-06T09:54:11;27.20;99.90
12015;DHT22;6066;48.138;16.402;2022-07-06T09:56:38;27.10;99.90
12015;DHT22;6066;48.138;16.402;2022-07-06T09:59:07;26.90;99.90
12015;DHT22;6066;48.138;16.402;2022-07-06T10:01:34;26.50;99.90
12015;DHT22;6066;48.138;16.402;2022-07-06T10:04:01;26.30;99.90
12015;DHT22;6066;48.138;16.402;2022-07-06T10:06:28;26.00;99.90
12015;DHT22;6066;48.138;16.402;2022-07-06T10:08:56;25.80;99.90
12015;DHT22;6066;48.138;16.402;2022-07-06T10:11:24;25.70;99.90
12015;DHT22;6066;48.138;16.402;2022-07-06T10:13:51;25.70;99.90
12015;DHT22;6066;48.138;16.402;2022-07-06T10:16:19;25.70;99.90
12015;DHT22;6066;48.138;16.402;2022-07-06T10:18:46;25.80;99.90
12015;DHT22;6066;48.138;16.402;2022-07-06T10:21:14;25.80;99.90
12015;DHT22;6066;48.138;16.402;2022-07-06T10:23:41;25.70;99.90
12015;DHT22;6066;48.138;16.402;2022-07-06T10:26:10;26.20;99.90
12015;DHT22;6066;48.138;16.402;2022-07-06T10:28:37;26.50;99.90
12015;DHT22;6066;48.138;16.402;2022-07-06T10:31:03;26.40;99.90
12015;DHT22;6066;48.138;16.402;2022-07-06T10:33:31;26.20;99.90
12015;DHT22;6066;48.138;16.402;2022-07-06T10:35:58;26.00;99.90
12015;DHT22;6066;48.138;16.402;2022-07-06T10:38:30;25.80;99.90
12015;DHT22;6066;48.138;16.402;2022-07-06T10:40:58;25.60;99.90
12015;DHT22;6066;48.138;16.402;2022-07-06T10:43:34;25.30;99.90
12015;DHT22;6066;48.138;16.402;2022-07-06T10:46:07;25.10;99.90
12015;DHT22;6066;48.138;16.402;2022-07-06T10:48:35;24.90;99.90
12015;DHT22;6066;48.138;16.402;2022-07-06T10:51:02;24.60;99.90
12015;DHT22;6066;48.138;16.402;2022-07-06T10:53:31;24.50;99.90
12015;DHT22;6066;48.138;16.402;2022-07-06T10:55:59;24.20;99.90
12015;DHT22;6066;48.138;16.402;2022-07-06T11:01:13;23.80;99.90
12015;DHT22;6066;48.138;16.402;2022-07-06T11:03:42;23.20;99.90
12015;DHT22;6066;48.138;16.402;2022-07-06T11:06:10;22.40;99.90
12015;DHT22;6066;48.138;16.402;2022-07-06T11:08:41;21.10;99.90
12015;DHT22;6066;48.138;16.402;2022-07-06T11:11:11;19.80;99.90
12015;DHT22;6066;48.138;16.402;2022-07-06T11:13:43;18.70;99.90
12015;DHT22;6066;48.138;16.402;2022-07-06T11:16:10;18.00;99.90
12015;DHT22;6066;48.138;16.402;2022-07-06T11:18:41;17.60;99.90
12015;DHT22;6066;48.138;16.402;2022-07-06T11:21:17;17.40;99.90
12015;DHT22;6066;48.138;16.402;2022-07-06T11:23:45;17.20;99.90
12015;DHT22;6066;48.138;16.402;2022-07-06T11:26:11;17.10;99.90
12015;DHT22;6066;48.138;16.402;2022-07-06T11:28:38;17.20;99.90
12015;DHT22;6066;48.138;16.402;2022-07-06T11:31:05;17.20;99.90
12015;DHT22;6066;48.138;16.402;2022-07-06T11:33:32;17.40;99.90
12015;DHT22;6066;48.138;16.402;2022-07-06T11:36:13;17.90;99.90
12015;DHT22;6066;48.138;16.402;2022-07-06T11:38:40;18.50;99.90
12015;DHT22;6066;48.138;16.402;2022-07-06T11:41:07;19.00;99.90
12015;DHT22;6066;48.138;16.402;2022-07-06T11:43:33;19.30;99.90
12015;DHT22;6066;48.138;16.402;2022-07-06T11:46:00;19.80;99.90
12015;DHT22;6066;48.138;16.402;2022-07-06T11:48:27;20.30;99.90
12015;DHT22;6066;48.138;16.402;2022-07-06T11:50:57;20.70;99.90
12015;DHT22;6066;48.138;16.402;2022-07-06T11:53:25;20.90;99.90
12015;DHT22;6066;48.138;16.402;2022-07-06T11:55:52;21.00;99.90
12015;DHT22;6066;48.138;16.402;2022-07-06T12:03:27;21.60;99.90
12015;DHT22;6066;48.138;16.402;2022-07-06T12:05:54;22.00;99.90
12015;DHT22;6066;48.138;16.402;2022-07-06T12:08:21;22.30;99.90
12015;DHT22;6066;48.138;16.402;2022-07-06T12:10:49;22.70;99.90
12015;DHT22;6066;48.138;16.402;2022-07-06T12:13:16;22.90;99.90
12015;DHT22;6066;48.138;16.402;2022-07-06T12:15:42;23.30;99.90
12015;DHT22;6066;48.138;16.402;2022-07-06T12:18:09;23.60;99.90
12015;DHT22;6066;48.138;16.402;2022-07-06T12:20:36;23.90;99.90
12015;DHT22;6066;48.138;16.402;2022-07-06T12:23:02;24.00;99.90
12015;DHT22;6066;48.138;16.402;2022-07-06T12:25:29;24.30;99.90
12015;DHT22;6066;48.138;16.402;2022-07-06T12:27:57;24.60;99.90
12015;DHT22;6066;48.138;16.402;2022-07-06T12:30:24;24.70;99.90
12015;DHT22;6066;48.138;16.402;2022-07-06T12:35:37;24.90;99.90
12015;DHT22;6066;48.138;16.402;2022-07-06T12:38:05;25.00;99.90
12015;DHT22;6066;48.138;16.402;2022-07-06T12:40:32;25.20;99.90
12015;DHT22;6066;48.138;16.402;2022-07-06T12:43:00;25.20;99.90
12015;DHT22;6066;48.138;16.402;2022-07-06T12:45:26;25.10;99.90
12015;DHT22;6066;48.138;16.402;2022-07-06T12:47:57;24.80;99.90
12015;DHT22;6066;48.138;16.402;2022-07-06T12:50:30;24.60;99.90
12015;DHT22;6066;48.138;16.402;2022-07-06T12:52:56;24.40;99.90
12015;DHT22;6066;48.138;16.402;2022-07-06T12:55:25;24.20;99.90
12015;DHT22;6066;48.138;16.402;2022-07-06T12:57:52;24.00;99.90
12015;DHT22;6066;48.138;16.402;2022-07-06T13:00:20;23.80;99.90
12015;DHT22;6066;48.138;16.402;2022-07-06T13:02:48;24.00;99.90
12015;DHT22;6066;48.138;16.402;2022-07-06T13:05:21;24.20;99.90
12015;DHT22;6066;48.138;16.402;2022-07-06T13:07:53;24.10;99.90
12015;DHT22;6066;48.138;16.402;2022-07-06T13:10:20;24.00;99.90
12015;DHT22;6066;48.138;16.402;2022-07-06T13:12:47;23.80;99.90
12015;DHT22;6066;48.138;16.402;2022-07-06T13:15:14;23.80;99.90
12015;DHT22;6066;48.138;16.402;2022-07-06T13:17:42;24.20;99.90
12015;DHT22;6066;48.138;16.402;2022-07-06T13:20:10;24.90;99.90
12015;DHT22;6066;48.138;16.402;2022-07-06T13:22:37;25.50;99.90
12015;DHT22;6066;48.138;16.402;2022-07-06T13:25:04;25.70;99.90
12015;DHT22;6066;48.138;16.402;2022-07-06T13:27:31;25.70;99.90
12015;DHT22;6066;48.138;16.402;2022-07-06T13:29:58;25.90;99.90
12015;DHT22;6066;48.138;16.402;2022-07-06T13:32:25;25.70;99.90
12015;DHT22;6066;48.138;16.402;2022-07-06T13:34:53;25.50;99.90
12015;DHT22;6066;48.138;16.402;2022-07-06T13:37:19;25.20;99.90
12015;DHT22;6066;48.138;16.402;2022-07-06T13:39:46;25.00;99.90
12015;DHT22;6066;48.138;16.402;2022-07-06T13:42:13;24.80;99.90
12015;DHT22;6066;48.138;16.402;2022-07-06T13:44:40;24.60;99.90
12015;DHT22;6066;48.138;16.402;2022-07-06T13:47:06;24.30;99.90
12015;DHT22;6066;48.138;16.402;2022-07-06T13:49:33;24.10;99.90
12015;DHT22;6066;48.138;16.402;2022-07-06T13:52:01;24.00;99.90
12015;DHT22;6066;48.138;16.402;2022-07-06T13:54:29;23.70;99.90
12015;DHT22;6066;48.138;16.402;2022-07-06T13:56:55;23.60;99.90
12015;DHT22;6066;48.138;16.402;2022-07-06T13:59:22;23.40;99.90
12015;DHT22;6066;48.138;16.402;2022-07-06T14:01:49;23.40;99.90
12015;DHT22;6066;48.138;16.402;2022-07-06T14:04:16;23.60;99.90
12015;DHT22;6066;48.138;16.402;2022-07-06T14:06:42;24.00;99.90
12015;DHT22;6066;48.138;16.402;2022-07-06T14:09:10;24.00;99.90
12015;DHT22;6066;48.138;16.402;2022-07-06T14:11:37;24.00;99.90
12015;DHT22;6066;48.138;16.402;2022-07-06T14:14:04;23.80;99.90
12015;DHT22;6066;48.138;16.402;2022-07-06T14:16:32;23.70;99.90
12015;DHT22;6066;48.138;16.402;2022-07-06T14:19:00;23.90;99.90
12015;DHT22;6066;48.138;16.402;2022-07-06T14:21:27;24.10;99.90
12015;DHT22;6066;48.138;16.402;2022-07-06T14:23:54;24.20;99.90
12015;DHT22;6066;48.138;16.402;2022-07-06T14:26:22;24.10;99.90
12015;DHT22;6066;48.138;16.402;2022-07-06T14:28:48;24.00;99.90
12015;DHT22;6066;48.138;16.402;2022-07-06T14:31:15;23.80;99.90
12015;DHT22;6066;48.138;16.402;2022-07-06T14:33:42;23.60;99.90
12015;DHT22;6066;48.138;16.402;2022-07-06T14:36:09;23.40;99.90
12015;DHT22;6066;48.138;16.402;2022-07-06T14:38:36;23.40;99.90
12015;DHT22;6066;48.138;16.402;2022-07-06T14:41:02;23.20;99.90
12015;DHT22;6066;48.138;16.402;2022-07-06T14:43:30;23.10;99.90
12015;DHT22;6066;48.138;16.402;2022-07-06T14:45:57;23.00;99.90
12015;DHT22;6066;48.138;16.402;2022-07-06T14:48:24;22.80;99.90
12015;DHT22;6066;48.138;16.402;2022-07-06T14:50:50;22.50;99.90
12015;DHT22;6066;48.138;16.402;2022-07-06T14:53:18;22.30;99.90
12015;DHT22;6066;48.138;16.402;2022-07-06T14:55:45;22.00;99.90
12015;DHT22;6066;48.138;16.402;2022-07-06T14:58:12;21.80;99.90
12015;DHT22;6066;48.138;16.402;2022-07-06T15:00:44;21.80;99.90
12015;DHT22;6066;48.138;16.402;2022-07-06T15:03:11;21.60;99.90
12015;DHT22;6066;48.138;16.402;2022-07-06T15:05:37;21.50;99.90
12015;DHT22;6066;48.138;16.402;2022-07-06T15:08:05;21.40;99.90
12015;DHT22;6066;48.138;16.402;2022-07-06T15:10:31;21.50;99.90
12015;DHT22;6066;48.138;16.402;2022-07-06T15:12:58;21.50;99.90
12015;DHT22;6066;48.138;16.402;2022-07-06T15:15:25;21.60;99.90
12015;DHT22;6066;48.138;16.402;2022-07-06T15:17:53;21.70;99.90
12015;DHT22;6066;48.138;16.402;2022-07-06T15:20:20;21.90;99.90
12015;DHT22;6066;48.138;16.402;2022-07-06T15:22:47;22.20;99.90
12015;DHT22;6066;48.138;16.402;2022-07-06T15:25:16;22.50;99.90
12015;DHT22;6066;48.138;16.402;2022-07-06T15:27:44;22.90;99.90
12015;DHT22;6066;48.138;16.402;2022-07-06T15:30:12;23.60;99.90
12015;DHT22;6066;48.138;16.402;2022-07-06T15:32:39;24.20;99.90
12015;DHT22;6066;48.138;16.402;2022-07-06T15:35:08;24.40;99.90
12015;DHT22;6066;48.138;16.402;2022-07-06T15:37:36;24.60;99.90
12015;DHT22;6066;48.138;16.402;2022-07-06T15:40:04;24.80;99.90
12015;DHT22;6066;48.138;16.402;2022-07-06T15:42:34;24.90;99.90